sensor_id;sensor_type;location;lat;lon;timestamp;temperature;humidity
9083;DHT22;4577;48.704;9.000;2022-10-16T00:03:09;16.30;99.90
9083;DHT22;4577;48.704;9.000;2022-10-16T00:05:42;16.40;99.90
9083;DHT22;4577;48.704;9.000;2022-10-16T00:08:12;16.40;99.90
9083;DHT22;4577;48.704;9.000;2022-10-16T00:15:34;16.30;99.90
9083;DHT22;4577;48.704;9.000;2022-10-16T00:18:02;16.20;99.90
9083;DHT22;4577;48.704;9.000;2022-10-16T00:20:28;16.20;99.90
9083;DHT22;4577;48.704;9.000;2022-10-16T00:22:54;16.20;99.90
9083;DHT22;4577;48.704;9.000;2022-10-16T00:25:19;16.20;99.90
9083;DHT22;4577;48.704;9.000;2022-10-16T00:30:11;16.20;99.90
9083;DHT22;4577;48.704;9.000;2022-10-16T00:32:36;16.20;99.90
9083;DHT22;4577;48.704;9.000;2022-10-16T00:35:02;16.10;99.90
9083;DHT22;4577;48.704;9.000;2022-10-16T00:37:29;16.10;99.90
9083;DHT22;4577;48.704;9.000;2022-10-16T00:39:54;16.00;99.90
9083;DHT22;4577;48.704;9.000;2022-10-16T00:42:22;16.00;99.90
9083;DHT22;4577;48.704;9.000;2022-10-16T00:47:19;16.00;99.90
9083;DHT22;4577;48.704;9.000;2022-10-16T00:49:47;16.10;99.90
9083;DHT22;4577;48.704;9.000;2022-10-16T00:52:13;16.00;99.90
9083;DHT22;4577;48.704;9.000;2022-10-16T00:54:40;16.10;99.90
9083;DHT22;4577;48.704;9.000;2022-10-16T00:57:06;16.00;99.90
9083;DHT22;4577;48.704;9.000;2022-10-16T00:59:35;16.10;99.90
9083;DHT22;4577;48.704;9.000;2022-10-16T01:02:03;16.10;99.90
9083;DHT22;4577;48.704;9.000;2022-10-16T01:04:34;16.00;99.90
9083;DHT22;4577;48.704;9.000;2022-10-16T01:07:09;16.10;99.90
9083;DHT22;4577;48.704;9.000;2022-10-16T01:12:57;16.00;99.90
9083;DHT22;4577;48.704;9.000;2022-10-16T01:18:30;16.00;99.90
9083;DHT22;4577;48.704;9.000;2022-10-16T01:21:04;15.90;99.90
9083;DHT22;4577;48.704;9.000;2022-10-16T01:27:30;15.90;99.90
9083;DHT22;4577;48.704;9.000;2022-10-16T01:29:31;15.90;99.90
9083;DHT22;4577;48.704;9.000;2022-10-16T01:32:01;15.90;99.90
9083;DHT22;4577;48.704;9.000;2022-10-16T01:34:38;15.50;99.90
9083;DHT22;4577;48.704;9.000;2022-10-16T01:37:15;12.50;99.90
9083;DHT22;4577;48.704;9.000;2022-10-16T01:39:44;15.90;99.90
9083;DHT22;4577;48.704;9.000;2022-10-16T01:42:28;15.90;99.90
9083;DHT22;4577;48.704;9.000;2022-10-16T01:44:58;15.90;99.90
9083;DHT22;4577;48.704;9.000;2022-10-16T01:47:25;15.90;99.90
9083;DHT22;4577;48.704;9.000;2022-10-16T01:49:52;16.00;99.90
9083;DHT22;4577;48.704;9.000;2022-10-16T01:52:22;15.80;99.90
9083;DHT22;4577;48.704;9.000;2022-10-16T01:54:51;15.90;99.90
9083;DHT22;4577;48.704;9.000;2022-10-16T02:00:08;15.90;99.90
9083;DHT22;4577;48.704;9.000;2022-10-16T02:02:34;15.90;99.90
9083;DHT22;4577;48.704;9.000;2022-10-16T02:05:42;15.90;99.90
9083;DHT22;4577;48.704;9.000;2022-10-16T02:08:09;15.80;99.90
9083;DHT22;4577;48.704;9.000;2022-10-16T02:10:36;15.90;99.90
9083;DHT22;4577;48.704;9.000;2022-10-16T02:13:11;16.00;99.90
9083;DHT22;4577;48.704;9.000;2022-10-16T02:15:38;15.90;99.90
9083;DHT22;4577;48.704;9.000;2022-10-16T02:18:05;16.10;99.90
9083;DHT22;4577;48.704;9.000;2022-10-16T02:20:45;16.00;99.90
9083;DHT22;4577;48.704;9.000;2022-10-16T02:23:19;16.00;99.90
9083;DHT22;4577;48.704;9.000;2022-10-16T02:25:50;16.00;99.90
9083;DHT22;4577;48.704;9.000;2022-10-16T02:28:24;15.90;99.90
9083;DHT22;4577;48.704;9.000;2022-10-16T02:30:58;16.00;99.90
9083;DHT22;4577;48.704;9.000;2022-10-16T02:33:26;15.80;99.90
9083;DHT22;4577;48.704;9.000;2022-10-16T02:35:53;16.00;99.90
9083;DHT22;4577;48.704;9.000;2022-10-16T02:38:21;16.00;99.90
9083;DHT22;4577;48.704;9.000;2022-10-16T02:40:47;16.00;99.90
9083;DHT22;4577;48.704;9.000;2022-10-16T02:43:13;16.00;99.90
9083;DHT22;4577;48.704;9.000;2022-10-16T02:48:05;16.10;99.90
9083;DHT22;4577;48.704;9.000;2022-10-16T02:50:31;16.30;99.90
9083;DHT22;4577;48.704;9.000;2022-10-16T02:52:57;16.00;99.90
9083;DHT22;4577;48.704;9.000;2022-10-16T02:57:48;16.10;99.90
9083;DHT22;4577;48.704;9.000;2022-10-16T03:00:16;16.00;99.90
9083;DHT22;4577;48.704;9.000;2022-10-16T03:02:43;16.00;99.90
9083;DHT22;4577;48.704;9.000;2022-10-16T03:05:09;16.00;99.90
9083;DHT22;4577;48.704;9.000;2022-10-16T03:07:35;16.00;99.90
9083;DHT22;4577;48.704;9.000;2022-10-16T03:10:01;15.90;99.90
9083;DHT22;4577;48.704;9.000;2022-10-16T03:12:28;15.90;99.90
9083;DHT22;4577;48.704;9.000;2022-10-16T03:14:54;15.80;99.90
9083;DHT22;4577;48.704;9.000;2022-10-16T03:19:46;15.80;99.90
9083;DHT22;4577;48.704;9.000;2022-10-16T03:22:12;15.80;99.90
9083;DHT22;4577;48.704;9.000;2022-10-16T03:27:03;15.70;99.90
9083;DHT22;4577;48.704;9.000;2022-10-16T03:29:29;15.70;99.90
9083;DHT22;4577;48.704;9.000;2022-10-16T03:31:56;15.60;99.90
9083;DHT22;4577;48.704;9.000;2022-10-16T03:34:21;15.80;99.90
9083;DHT22;4577;48.704;9.000;2022-10-16T03:36:47;15.70;99.90
9083;DHT22;4577;48.704;9.000;2022-10-16T03:39:13;15.70;99.90
9083;DHT22;4577;48.704;9.000;2022-10-16T03:41:39;15.80;99.90
9083;DHT22;4577;48.704;9.000;2022-10-16T03:44:04;15.70;99.90
9083;DHT22;4577;48.704;9.000;2022-10-16T03:48:56;16.00;99.90
9083;DHT22;4577;48.704;9.000;2022-10-16T03:51:22;15.80;99.90
9083;DHT22;4577;48.704;9.000;2022-10-16T03:53:47;15.90;99.90
9083;DHT22;4577;48.704;9.000;2022-10-16T03:58:39;15.90;99.90
9083;DHT22;4577;48.704;9.000;2022-10-16T04:01:05;15.90;99.90
9083;DHT22;4577;48.704;9.000;2022-10-16T04:05:56;15.70;99.90
9083;DHT22;4577;48.704;9.000;2022-10-16T04:08:22;15.80;99.90
9083;DHT22;4577;48.704;9.000;2022-10-16T04:10:48;15.80;99.90
9083;DHT22;4577;48.704;9.000;2022-10-16T04:13:14;15.70;99.90
9083;DHT22;4577;48.704;9.000;2022-10-16T04:15:39;15.80;99.90
9083;DHT22;4577;48.704;9.000;2022-10-16T04:18:05;15.80;99.90
9083;DHT22;4577;48.704;9.000;2022-10-16T04:20:32;15.80;99.90
9083;DHT22;4577;48.704;9.000;2022-10-16T04:22:58;15.90;99.90
9083;DHT22;4577;48.704;9.000;2022-10-16T04:25:24;15.90;99.90
9083;DHT22;4577;48.704;9.000;2022-10-16T04:27:49;15.90;99.90
9083;DHT22;4577;48.704;9.000;2022-10-16T04:30:15;15.90;99.90
9083;DHT22;4577;48.704;9.000;2022-10-16T04:32:41;15.90;99.90
9083;DHT22;4577;48.704;9.000;2022-10-16T04:39:59;15.90;99.90
9083;DHT22;4577;48.704;9.000;2022-10-16T04:44:50;15.90;99.90
9083;DHT22;4577;48.704;9.000;2022-10-16T04:49:42;15.90;99.90
9083;DHT22;4577;48.704;9.000;2022-10-16T04:52:08;15.80;99.90
9083;DHT22;4577;48.704;9.000;2022-10-16T04:57:00;15.80;99.90
9083;DHT22;4577;48.704;9.000;2022-10-16T05:04:18;15.80;99.90
9083;DHT22;4577;48.704;9.000;2022-10-16T05:09:10;15.90;99.90
9083;DHT22;4577;48.704;9.000;2022-10-16T05:11:36;15.80;99.90
9083;DHT22;4577;48.704;9.000;2022-10-16T05:18:54;15.80;99.90
9083;DHT22;4577;48.704;9.000;2022-10-16T05:21:20;15.80;99.90
9083;DHT22;4577;48.704;9.000;2022-10-16T05:23:45;15.80;99.90
9083;DHT22;4577;48.704;9.000;2022-10-16T05:26:11;15.80;99.90
9083;DHT22;4577;48.704;9.000;2022-10-16T05:28:37;15.80;99.90
9083;DHT22;4577;48.704;9.000;2022-10-16T05:31:07;15.70;99.90
9083;DHT22;4577;48.704;9.000;2022-10-16T05:36:04;15.60;99.90
9083;DHT22;4577;48.704;9.000;2022-10-16T05:38:29;15.50;99.90
9083;DHT22;4577;48.704;9.000;2022-10-16T05:40:55;15.50;99.90
9083;DHT22;4577;48.704;9.000;2022-10-16T05:43:22;15.50;99.90
9083;DHT22;4577;48.704;9.000;2022-10-16T05:45:58;15.50;99.90
9083;DHT22;4577;48.704;9.000;2022-10-16T05:51:01;15.60;99.90
9083;DHT22;4577;48.704;9.000;2022-10-16T05:53:28;15.60;99.90
9083;DHT22;4577;48.704;9.000;2022-10-16T05:55:57;15.20;99.90
9083;DHT22;4577;48.704;9.000;2022-10-16T05:58:24;15.70;99.90
9083;DHT22;4577;48.704;9.000;2022-10-16T06:00:55;15.70;99.90
9083;DHT22;4577;48.704;9.000;2022-10-16T06:08:13;15.60;99.90
9083;DHT22;4577;48.704;9.000;2022-10-16T06:10:38;15.50;99.90
9083;DHT22;4577;48.704;9.000;2022-10-16T06:13:04;15.60;99.90
9083;DHT22;4577;48.704;9.000;2022-10-16T06:15:30;15.60;99.90
9083;DHT22;4577;48.704;9.000;2022-10-16T06:17:55;15.60;99.90
9083;DHT22;4577;48.704;9.000;2022-10-16T06:20:21;15.60;99.90
9083;DHT22;4577;48.704;9.000;2022-10-16T06:25:12;15.60;99.90
9083;DHT22;4577;48.704;9.000;2022-10-16T06:27:41;15.60;99.90
9083;DHT22;4577;48.704;9.000;2022-10-16T06:30:07;15.60;99.90
9083;DHT22;4577;48.704;9.000;2022-10-16T06:34:59;15.60;99.90
9083;DHT22;4577;48.704;9.000;2022-10-16T06:39:51;15.80;99.90
9083;DHT22;4577;48.704;9.000;2022-10-16T06:42:19;15.70;99.90
9083;DHT22;4577;48.704;9.000;2022-10-16T06:44:45;15.80;99.90
9083;DHT22;4577;48.704;9.000;2022-10-16T06:47:11;15.90;99.90
9083;DHT22;4577;48.704;9.000;2022-10-16T06:49:37;15.80;99.90
9083;DHT22;4577;48.704;9.000;2022-10-16T06:56:55;15.60;99.90
9083;DHT22;4577;48.704;9.000;2022-10-16T06:59:21;16.00;99.90
9083;DHT22;4577;48.704;9.000;2022-10-16T07:01:47;16.20;99.90
9083;DHT22;4577;48.704;9.000;2022-10-16T07:06:39;16.30;99.90
9083;DHT22;4577;48.704;9.000;2022-10-16T07:09:07;16.20;99.90
9083;DHT22;4577;48.704;9.000;2022-10-16T07:11:33;16.20;99.90
9083;DHT22;4577;48.704;9.000;2022-10-16T07:13:59;16.30;99.90
9083;DHT22;4577;48.704;9.000;2022-10-16T07:16:29;16.40;99.90
9083;DHT22;4577;48.704;9.000;2022-10-16T07:19:00;16.40;99.90
9083;DHT22;4577;48.704;9.000;2022-10-16T07:21:27;16.40;99.90
9083;DHT22;4577;48.704;9.000;2022-10-16T07:23:59;16.30;99.90
9083;DHT22;4577;48.704;9.000;2022-10-16T07:26:27;16.30;99.90
9083;DHT22;4577;48.704;9.000;2022-10-16T07:28:53;16.40;99.90
9083;DHT22;4577;48.704;9.000;2022-10-16T07:31:20;16.40;99.90
9083;DHT22;4577;48.704;9.000;2022-10-16T07:33:47;16.40;99.90
9083;DHT22;4577;48.704;9.000;2022-10-16T07:36:14;16.40;99.90
9083;DHT22;4577;48.704;9.000;2022-10-16T07:38:40;16.50;99.90
9083;DHT22;4577;48.704;9.000;2022-10-16T07:41:10;16.50;99.90
9083;DHT22;4577;48.704;9.000;2022-10-16T07:46:02;16.60;99.90
9083;DHT22;4577;48.704;9.000;2022-10-16T07:48:30;16.60;99.90
9083;DHT22;4577;48.704;9.000;2022-10-16T07:51:04;16.70;99.90
9083;DHT22;4577;48.704;9.000;2022-10-16T07:53:30;16.70;99.90
9083;DHT22;4577;48.704;9.000;2022-10-16T07:56:01;16.80;99.90
9083;DHT22;4577;48.704;9.000;2022-10-16T07:58:28;16.90;99.90
9083;DHT22;4577;48.704;9.000;2022-10-16T08:00:54;16.90;99.90
9083;DHT22;4577;48.704;9.000;2022-10-16T08:03:19;17.00;99.90
9083;DHT22;4577;48.704;9.000;2022-10-16T08:05:45;17.00;99.90
9083;DHT22;4577;48.704;9.000;2022-10-16T08:08:15;17.10;99.90
9083;DHT22;4577;48.704;9.000;2022-10-16T08:10:41;17.10;99.90
9083;DHT22;4577;48.704;9.000;2022-10-16T08:18:00;17.30;99.90
9083;DHT22;4577;48.704;9.000;2022-10-16T08:20:27;17.30;99.90
9083;DHT22;4577;48.704;9.000;2022-10-16T08:25:20;17.30;99.90
9083;DHT22;4577;48.704;9.000;2022-10-16T08:27:46;17.30;99.90
9083;DHT22;4577;48.704;9.000;2022-10-16T08:30:12;17.40;99.90
9083;DHT22;4577;48.704;9.000;2022-10-16T08:32:39;17.40;99.90
9083;DHT22;4577;48.704;9.000;2022-10-16T08:35:08;17.40;99.90
9083;DHT22;4577;48.704;9.000;2022-10-16T08:37:35;17.40;99.80
9083;DHT22;4577;48.704;9.000;2022-10-16T08:40:02;17.40;99.90
9083;DHT22;4577;48.704;9.000;2022-10-16T08:51:26;17.50;99.90
9083;DHT22;4577;48.704;9.000;2022-10-16T08:54:03;17.50;99.70
9083;DHT22;4577;48.704;9.000;2022-10-16T08:58:58;17.70;99.60
9083;DHT22;4577;48.704;9.000;2022-10-16T09:01:42;17.70;99.70
9083;DHT22;4577;48.704;9.000;2022-10-16T09:15:39;17.80;99.50
9083;DHT22;4577;48.704;9.000;2022-10-16T09:18:41;17.80;99.50
9083;DHT22;4577;48.704;9.000;2022-10-16T09:21:23;17.90;98.90
9083;DHT22;4577;48.704;9.000;2022-10-16T09:26:18;18.00;98.80
9083;DHT22;4577;48.704;9.000;2022-10-16T09:28:45;18.10;98.70
9083;DHT22;4577;48.704;9.000;2022-10-16T09:31:20;18.20;98.60
9083;DHT22;4577;48.704;9.000;2022-10-16T09:33:57;18.10;98.30
9083;DHT22;4577;48.704;9.000;2022-10-16T09:36:25;18.30;98.20
9083;DHT22;4577;48.704;9.000;2022-10-16T09:39:07;18.10;98.00
9083;DHT22;4577;48.704;9.000;2022-10-16T09:41:38;18.40;98.30
9083;DHT22;4577;48.704;9.000;2022-10-16T09:44:13;18.20;98.30
9083;DHT22;4577;48.704;9.000;2022-10-16T09:46:42;18.40;97.80
9083;DHT22;4577;48.704;9.000;2022-10-16T09:49:24;18.30;97.80
9083;DHT22;4577;48.704;9.000;2022-10-16T09:51:51;18.50;97.70
9083;DHT22;4577;48.704;9.000;2022-10-16T09:57:04;18.70;97.20
9083;DHT22;4577;48.704;9.000;2022-10-16T09:59:31;18.90;97.00
9083;DHT22;4577;48.704;9.000;2022-10-16T10:02:02;18.90;96.90
9083;DHT22;4577;48.704;9.000;2022-10-16T10:04:39;19.00;96.60
9083;DHT22;4577;48.704;9.000;2022-10-16T10:09:37;19.20;94.30
9083;DHT22;4577;48.704;9.000;2022-10-16T10:12:05;19.30;93.50
9083;DHT22;4577;48.704;9.000;2022-10-16T10:14:40;19.30;93.20
9083;DHT22;4577;48.704;9.000;2022-10-16T10:17:19;19.40;93.00
9083;DHT22;4577;48.704;9.000;2022-10-16T10:35:57;19.70;91.20
9083;DHT22;4577;48.704;9.000;2022-10-16T10:46:42;19.40;91.90
9083;DHT22;4577;48.704;9.000;2022-10-16T10:49:38;19.50;92.10
9083;DHT22;4577;48.704;9.000;2022-10-16T10:59:57;19.70;91.70
9083;DHT22;4577;48.704;9.000;2022-10-16T11:07:58;19.50;92.00
9083;DHT22;4577;48.704;9.000;2022-10-16T11:11:00;19.80;92.00
9083;DHT22;4577;48.704;9.000;2022-10-16T11:21:55;19.90;91.20
9083;DHT22;4577;48.704;9.000;2022-10-16T11:24:42;20.00;91.10
9083;DHT22;4577;48.704;9.000;2022-10-16T11:27:15;20.10;91.10
9083;DHT22;4577;48.704;9.000;2022-10-16T11:29:51;20.10;90.90
9083;DHT22;4577;48.704;9.000;2022-10-16T11:32:26;20.10;90.80
9083;DHT22;4577;48.704;9.000;2022-10-16T11:34:59;20.20;90.90
9083;DHT22;4577;48.704;9.000;2022-10-16T11:37:33;20.30;90.70
9083;DHT22;4577;48.704;9.000;2022-10-16T11:40:19;20.40;90.30
9083;DHT22;4577;48.704;9.000;2022-10-16T11:43:34;20.50;89.80
9083;DHT22;4577;48.704;9.000;2022-10-16T11:45:42;20.50;89.70
9083;DHT22;4577;48.704;9.000;2022-10-16T11:48:27;20.40;89.90
9083;DHT22;4577;48.704;9.000;2022-10-16T11:51:08;20.50;90.00
9083;DHT22;4577;48.704;9.000;2022-10-16T11:53:57;20.50;84.90
9083;DHT22;4577;48.704;9.000;2022-10-16T11:56:24;20.60;85.30
9083;DHT22;4577;48.704;9.000;2022-10-16T11:59:04;20.80;81.90
9083;DHT22;4577;48.704;9.000;2022-10-16T12:04:19;21.00;81.70
9083;DHT22;4577;48.704;9.000;2022-10-16T12:07:04;20.90;81.20
9083;DHT22;4577;48.704;9.000;2022-10-16T12:09:36;21.20;79.90
9083;DHT22;4577;48.704;9.000;2022-10-16T12:14:37;21.40;77.70
9083;DHT22;4577;48.704;9.000;2022-10-16T12:17:24;21.40;76.30
9083;DHT22;4577;48.704;9.000;2022-10-16T12:25:25;21.40;76.30
9083;DHT22;4577;48.704;9.000;2022-10-16T12:28:06;21.40;75.80
9083;DHT22;4577;48.704;9.000;2022-10-16T12:30:35;21.50;75.00
9083;DHT22;4577;48.704;9.000;2022-10-16T12:33:40;21.40;75.10
9083;DHT22;4577;48.704;9.000;2022-10-16T12:36:15;21.50;75.00
9083;DHT22;4577;48.704;9.000;2022-10-16T12:38:50;21.30;75.10
9083;DHT22;4577;48.704;9.000;2022-10-16T12:41:31;21.20;76.00
9083;DHT22;4577;48.704;9.000;2022-10-16T12:46:37;21.10;76.70
9083;DHT22;4577;48.704;9.000;2022-10-16T12:54:13;21.20;76.20
9083;DHT22;4577;48.704;9.000;2022-10-16T12:57:08;21.20;74.50
9083;DHT22;4577;48.704;9.000;2022-10-16T13:04:38;21.10;76.80
9083;DHT22;4577;48.704;9.000;2022-10-16T13:24:25;21.20;77.00
9083;DHT22;4577;48.704;9.000;2022-10-16T13:29:20;21.40;77.00
9083;DHT22;4577;48.704;9.000;2022-10-16T13:34:17;21.40;75.50
9083;DHT22;4577;48.704;9.000;2022-10-16T13:36:47;21.40;75.10
9083;DHT22;4577;48.704;9.000;2022-10-16T13:41:45;21.50;75.90
9083;DHT22;4577;48.704;9.000;2022-10-16T13:44:20;21.40;74.90
9083;DHT22;4577;48.704;9.000;2022-10-16T13:49:16;21.30;75.60
9083;DHT22;4577;48.704;9.000;2022-10-16T13:51:58;21.10;75.20
9083;DHT22;4577;48.704;9.000;2022-10-16T13:54:26;21.30;74.10
9083;DHT22;4577;48.704;9.000;2022-10-16T13:56:54;21.30;73.20
9083;DHT22;4577;48.704;9.000;2022-10-16T13:59:25;21.40;72.50
9083;DHT22;4577;48.704;9.000;2022-10-16T14:01:54;21.40;72.60
9083;DHT22;4577;48.704;9.000;2022-10-16T14:04:21;21.30;73.10
9083;DHT22;4577;48.704;9.000;2022-10-16T14:06:50;21.40;72.90
9083;DHT22;4577;48.704;9.000;2022-10-16T14:11:54;21.40;72.50
9083;DHT22;4577;48.704;9.000;2022-10-16T14:14:21;21.40;71.70
9083;DHT22;4577;48.704;9.000;2022-10-16T14:16:48;21.50;72.10
9083;DHT22;4577;48.704;9.000;2022-10-16T14:19:21;21.40;72.00
9083;DHT22;4577;48.704;9.000;2022-10-16T14:21:49;21.40;72.10
9083;DHT22;4577;48.704;9.000;2022-10-16T14:29:25;21.60;74.00
9083;DHT22;4577;48.704;9.000;2022-10-16T14:32:20;21.40;72.90
9083;DHT22;4577;48.704;9.000;2022-10-16T14:34:53;21.60;72.70
9083;DHT22;4577;48.704;9.000;2022-10-16T14:37:29;21.50;72.80
9083;DHT22;4577;48.704;9.000;2022-10-16T14:39:55;21.60;72.90
9083;DHT22;4577;48.704;9.000;2022-10-16T14:42:24;21.60;72.50
9083;DHT22;4577;48.704;9.000;2022-10-16T14:44:51;21.60;73.30
9083;DHT22;4577;48.704;9.000;2022-10-16T14:47:21;21.60;74.20
9083;DHT22;4577;48.704;9.000;2022-10-16T15:21:49;21.60;76.30
9083;DHT22;4577;48.704;9.000;2022-10-16T15:41:25;21.30;77.40
9083;DHT22;4577;48.704;9.000;2022-10-16T15:46:20;21.40;78.40
9083;DHT22;4577;48.704;9.000;2022-10-16T15:48:47;21.30;78.70
9083;DHT22;4577;48.704;9.000;2022-10-16T15:51:13;21.40;80.20
9083;DHT22;4577;48.704;9.000;2022-10-16T16:05:55;21.10;81.00
9083;DHT22;4577;48.704;9.000;2022-10-16T16:11:08;20.90;82.30
9083;DHT22;4577;48.704;9.000;2022-10-16T16:13:34;20.80;82.50
9083;DHT22;4577;48.704;9.000;2022-10-16T16:16:00;20.80;83.20
9083;DHT22;4577;48.704;9.000;2022-10-16T16:18:26;20.80;83.60
9083;DHT22;4577;48.704;9.000;2022-10-16T16:28:11;20.30;84.00
9083;DHT22;4577;48.704;9.000;2022-10-16T16:30:40;20.50;84.30
9083;DHT22;4577;48.704;9.000;2022-10-16T16:40:23;20.40;87.20
9083;DHT22;4577;48.704;9.000;2022-10-16T16:59:53;19.80;91.00
9083;DHT22;4577;48.704;9.000;2022-10-16T17:04:45;19.80;91.60
9083;DHT22;4577;48.704;9.000;2022-10-16T17:16:54;19.60;92.20
9083;DHT22;4577;48.704;9.000;2022-10-16T17:19:20;19.70;92.30
9083;DHT22;4577;48.704;9.000;2022-10-16T17:21:49;19.50;92.40
9083;DHT22;4577;48.704;9.000;2022-10-16T17:24:15;19.60;92.70
9083;DHT22;4577;48.704;9.000;2022-10-16T17:43:57;19.30;93.50
9083;DHT22;4577;48.704;9.000;2022-10-16T17:48:51;19.40;93.30
9083;DHT22;4577;48.704;9.000;2022-10-16T17:53:55;19.30;93.30
9083;DHT22;4577;48.704;9.000;2022-10-16T18:03:43;18.80;93.60
9083;DHT22;4577;48.704;9.000;2022-10-16T18:11:03;18.80;93.80
9083;DHT22;4577;48.704;9.000;2022-10-16T18:13:29;18.70;93.90
9083;DHT22;4577;48.704;9.000;2022-10-16T18:20:59;18.70;94.10
9083;DHT22;4577;48.704;9.000;2022-10-16T18:25:52;18.70;94.20
9083;DHT22;4577;48.704;9.000;2022-10-16T18:28:18;18.70;94.00
9083;DHT22;4577;48.704;9.000;2022-10-16T18:38:04;18.90;93.80
9083;DHT22;4577;48.704;9.000;2022-10-16T18:40:30;18.70;93.70
9083;DHT22;4577;48.704;9.000;2022-10-16T18:42:56;18.80;93.60
9083;DHT22;4577;48.704;9.000;2022-10-16T18:47:48;18.80;93.10
9083;DHT22;4577;48.704;9.000;2022-10-16T18:55:12;18.90;93.00
9083;DHT22;4577;48.704;9.000;2022-10-16T19:04:56;18.70;93.60
9083;DHT22;4577;48.704;9.000;2022-10-16T19:07:22;18.60;93.40
9083;DHT22;4577;48.704;9.000;2022-10-16T19:19:33;18.70;92.70
9083;DHT22;4577;48.704;9.000;2022-10-16T19:24:39;18.60;92.80
9083;DHT22;4577;48.704;9.000;2022-10-16T19:27:06;18.60;92.90
9083;DHT22;4577;48.704;9.000;2022-10-16T19:29:32;18.60;92.90
9083;DHT22;4577;48.704;9.000;2022-10-16T19:36:53;18.40;93.10
9083;DHT22;4577;48.704;9.000;2022-10-16T19:41:46;18.30;93.20
9083;DHT22;4577;48.704;9.000;2022-10-16T19:54:03;18.10;93.40
9083;DHT22;4577;48.704;9.000;2022-10-16T20:06:20;17.90;93.80
9083;DHT22;4577;48.704;9.000;2022-10-16T20:08:48;17.80;94.50
9083;DHT22;4577;48.704;9.000;2022-10-16T20:11:21;17.80;94.20
9083;DHT22;4577;48.704;9.000;2022-10-16T20:13:48;17.80;94.00
9083;DHT22;4577;48.704;9.000;2022-10-16T20:18:42;17.60;93.80
9083;DHT22;4577;48.704;9.000;2022-10-16T20:21:16;17.60;94.10
9083;DHT22;4577;48.704;9.000;2022-10-16T20:23:43;17.60;94.00
9083;DHT22;4577;48.704;9.000;2022-10-16T20:28:41;17.70;94.20
9083;DHT22;4577;48.704;9.000;2022-10-16T20:31:10;17.60;94.30
9083;DHT22;4577;48.704;9.000;2022-10-16T20:33:37;17.60;94.30
9083;DHT22;4577;48.704;9.000;2022-10-16T20:36:03;17.60;94.10
9083;DHT22;4577;48.704;9.000;2022-10-16T20:41:02;17.60;94.10
9083;DHT22;4577;48.704;9.000;2022-10-16T20:43:28;17.60;93.90
9083;DHT22;4577;48.704;9.000;2022-10-16T20:46:03;17.50;93.80
9083;DHT22;4577;48.704;9.000;2022-10-16T20:53:22;17.30;93.90
9083;DHT22;4577;48.704;9.000;2022-10-16T20:58:14;17.50;94.40
9083;DHT22;4577;48.704;9.000;2022-10-16T21:03:07;17.50;94.10
9083;DHT22;4577;48.704;9.000;2022-10-16T21:05:38;17.40;94.00
9083;DHT22;4577;48.704;9.000;2022-10-16T21:08:05;17.40;94.30
9083;DHT22;4577;48.704;9.000;2022-10-16T21:12:57;17.40;94.00
9083;DHT22;4577;48.704;9.000;2022-10-16T21:15:23;17.30;93.90
9083;DHT22;4577;48.704;9.000;2022-10-16T21:17:49;17.30;94.10
9083;DHT22;4577;48.704;9.000;2022-10-16T21:20:15;17.10;94.10
9083;DHT22;4577;48.704;9.000;2022-10-16T21:25:07;17.00;94.40
9083;DHT22;4577;48.704;9.000;2022-10-16T21:27:37;17.00;94.50
9083;DHT22;4577;48.704;9.000;2022-10-16T21:30:08;16.90;94.50
9083;DHT22;4577;48.704;9.000;2022-10-16T21:32:35;16.80;94.50
9083;DHT22;4577;48.704;9.000;2022-10-16T21:39:56;16.80;94.60
9083;DHT22;4577;48.704;9.000;2022-10-16T21:47:15;16.80;94.30
9083;DHT22;4577;48.704;9.000;2022-10-16T21:49:41;16.80;94.40
9083;DHT22;4577;48.704;9.000;2022-10-16T21:54:34;16.70;94.50
9083;DHT22;4577;48.704;9.000;2022-10-16T21:56:59;16.70;94.50
9083;DHT22;4577;48.704;9.000;2022-10-16T22:01:52;16.50;94.40
9083;DHT22;4577;48.704;9.000;2022-10-16T22:04:18;16.40;94.60
9083;DHT22;4577;48.704;9.000;2022-10-16T22:06:44;16.40;94.60
9083;DHT22;4577;48.704;9.000;2022-10-16T22:11:39;16.20;94.90
9083;DHT22;4577;48.704;9.000;2022-10-16T22:14:09;16.20;94.90
9083;DHT22;4577;48.704;9.000;2022-10-16T22:19:03;16.20;95.00
9083;DHT22;4577;48.704;9.000;2022-10-16T22:21:33;16.10;95.00
9083;DHT22;4577;48.704;9.000;2022-10-16T22:23:59;16.10;95.10
9083;DHT22;4577;48.704;9.000;2022-10-16T22:28:53;16.10;94.90
9083;DHT22;4577;48.704;9.000;2022-10-16T22:33:46;16.10;94.90
9083;DHT22;4577;48.704;9.000;2022-10-16T22:36:13;16.00;94.80
9083;DHT22;4577;48.704;9.000;2022-10-16T22:38:40;16.00;95.00
9083;DHT22;4577;48.704;9.000;2022-10-16T22:41:09;15.90;95.10
9083;DHT22;4577;48.704;9.000;2022-10-16T22:43:43;15.90;95.20
9083;DHT22;4577;48.704;9.000;2022-10-16T22:46:11;15.90;95.30
9083;DHT22;4577;48.704;9.000;2022-10-16T22:51:05;16.00;95.00
9083;DHT22;4577;48.704;9.000;2022-10-16T22:53:31;16.30;94.90
9083;DHT22;4577;48.704;9.000;2022-10-16T22:55:58;15.90;94.90
9083;DHT22;4577;48.704;9.000;2022-10-16T23:00:49;15.90;94.80
9083;DHT22;4577;48.704;9.000;2022-10-16T23:03:16;15.90;94.80
9083;DHT22;4577;48.704;9.000;2022-10-16T23:05:42;15.90;94.80
9083;DHT22;4577;48.704;9.000;2022-10-16T23:08:09;15.80;94.70
9083;DHT22;4577;48.704;9.000;2022-10-16T23:10:42;15.80;94.70
9083;DHT22;4577;48.704;9.000;2022-10-16T23:15:38;15.60;94.90
9083;DHT22;4577;48.704;9.000;2022-10-16T23:18:04;15.50;94.90
9083;DHT22;4577;48.704;9.000;2022-10-16T23:22:55;15.60;94.90
9083;DHT22;4577;48.704;9.000;2022-10-16T23:30:14;15.50;94.90
9083;DHT22;4577;48.704;9.000;2022-10-16T23:32:40;15.60;94.90
9083;DHT22;4577;48.704;9.000;2022-10-16T23:35:06;15.60;94.80
9083;DHT22;4577;48.704;9.000;2022-10-16T23:37:32;15.50;94.80
9083;DHT22;4577;48.704;9.000;2022-10-16T23:42:24;15.30;95.00
9083;DHT22;4577;48.704;9.000;2022-10-16T23:44:50;15.20;95.10
9083;DHT22;4577;48.704;9.000;2022-10-16T23:49:42;15.40;95.10
9083;DHT22;4577;48.704;9.000;2022-10-16T23:54:34;15.10;95.30
9083;DHT22;4577;48.704;9.000;2022-10-16T23:57:00;15.20;95.30
